createdAt,value
2022-08-04T00:00:07.158Z,17.90
2022-08-04T00:01:16.707Z,17.90
2022-08-04T00:02:25.817Z,17.90
2022-08-04T00:03:33.526Z,17.80
2022-08-04T00:04:43.878Z,17.80
2022-08-04T00:06:03.168Z,17.80
2022-08-04T00:07:13.491Z,17.80
2022-08-04T00:08:26.257Z,17.80
2022-08-04T00:09:37.455Z,17.80
2022-08-04T00:10:40.408Z,17.70
2022-08-04T00:11:46.567Z,17.70
2022-08-04T00:12:51.950Z,17.70
2022-08-04T00:14:16.202Z,17.70
2022-08-04T00:15:19.786Z,17.70
2022-08-04T00:16:24.901Z,17.70
2022-08-04T00:17:41.767Z,17.70
2022-08-04T00:19:10.667Z,17.70
2022-08-04T00:20:18.437Z,17.80
2022-08-04T00:21:24.868Z,17.70
2022-08-04T00:22:31.697Z,17.70
2022-08-04T00:24:11.868Z,17.70
2022-08-04T00:25:01.714Z,17.70
2022-08-04T00:26:04.238Z,17.70
2022-08-04T00:27:08.153Z,17.70
2022-08-04T00:28:10.262Z,17.70
2022-08-04T00:29:12.167Z,17.70
2022-08-04T00:30:14.085Z,17.70
2022-08-04T00:31:16.560Z,17.70
2022-08-04T00:32:33.894Z,17.70
2022-08-04T00:33:38.206Z,17.70
2022-08-04T00:34:41.126Z,17.70
2022-08-04T00:35:44.985Z,17.60
2022-08-04T00:36:47.009Z,17.60
2022-08-04T00:37:49.602Z,17.60
2022-08-04T00:38:52.376Z,17.50
2022-08-04T00:39:55.415Z,17.40
2022-08-04T00:41:57.102Z,17.30
2022-08-04T00:43:18.929Z,17.30
2022-08-04T00:44:35.393Z,17.20
2022-08-04T00:46:17.124Z,17.10
2022-08-04T00:47:44.860Z,17.10
2022-08-04T00:48:52.682Z,17.10
2022-08-04T00:50:15.136Z,17.00
2022-08-04T00:51:42.280Z,17.10
2022-08-04T00:52:46.897Z,17.00
2022-08-04T00:54:10.036Z,17.00
2022-08-04T00:55:32.921Z,17.00
2022-08-04T00:57:00.909Z,17.00
2022-08-04T00:58:29.404Z,16.90
2022-08-04T00:59:42.831Z,16.90
2022-08-04T01:00:59.761Z,16.90
2022-08-04T01:02:25.078Z,16.90
2022-08-04T01:03:49.975Z,16.90
2022-08-04T01:05:06.696Z,16.90
2022-08-04T01:06:30.694Z,16.90
2022-08-04T01:07:53.871Z,16.80
2022-08-04T01:09:08.465Z,16.90
2022-08-04T01:10:30.856Z,16.80
2022-08-04T01:12:07.508Z,16.90
2022-08-04T01:13:25.668Z,16.80
2022-08-04T01:14:48.877Z,16.80
2022-08-04T01:16:05.979Z,16.80
2022-08-04T01:17:46.492Z,16.70
2022-08-04T01:19:08.103Z,16.70
2022-08-04T01:20:11.572Z,16.60
2022-08-04T01:21:31.868Z,16.60
2022-08-04T01:22:33.693Z,16.60
2022-08-04T01:23:50.812Z,16.50
2022-08-04T01:25:11.343Z,16.60
2022-08-04T01:26:43.506Z,16.60
2022-08-04T01:28:19.730Z,16.50
2022-08-04T01:29:23.532Z,16.50
2022-08-04T01:30:27.722Z,16.50
2022-08-04T01:32:52.165Z,16.50
2022-08-04T01:34:04.506Z,16.50
2022-08-04T01:35:46.717Z,16.50
2022-08-04T01:37:04.388Z,16.50
2022-08-04T01:38:33.497Z,16.50
2022-08-04T01:39:40.722Z,16.40
2022-08-04T01:40:44.680Z,16.40
2022-08-04T01:41:57.920Z,16.40
2022-08-04T01:43:02.089Z,16.40
2022-08-04T01:44:06.062Z,16.40
2022-08-04T01:45:10.568Z,16.40
2022-08-04T01:46:15.096Z,16.40
2022-08-04T01:47:20.993Z,16.40
2022-08-04T01:48:27.864Z,16.40
2022-08-04T01:49:39.968Z,16.40
2022-08-04T01:50:44.708Z,16.40
2022-08-04T01:51:49.583Z,16.40
2022-08-04T01:52:54.550Z,16.40
2022-08-04T01:53:56.822Z,16.40
2022-08-04T01:55:00.118Z,16.30
2022-08-04T01:56:03.822Z,16.30
2022-08-04T01:57:38.030Z,16.30
2022-08-04T01:58:30.866Z,16.30
2022-08-04T01:59:35.517Z,16.20
2022-08-04T02:00:46.062Z,16.20
2022-08-04T02:01:48.806Z,16.20
2022-08-04T02:02:51.733Z,16.10
2022-08-04T02:04:19.369Z,16.00
2022-08-04T02:05:18.131Z,16.00
2022-08-04T02:06:38.068Z,15.90
2022-08-04T02:07:45.709Z,15.90
2022-08-04T02:09:23.139Z,15.80
2022-08-04T02:10:48.209Z,15.70
2022-08-04T02:12:04.754Z,15.60
2022-08-04T02:13:20.974Z,15.60
2022-08-04T02:14:50.882Z,15.60
2022-08-04T02:16:11.896Z,15.60
2022-08-04T02:17:29.049Z,15.50
2022-08-04T02:18:51.985Z,15.60
2022-08-04T02:20:15.644Z,15.50
2022-08-04T02:21:20.796Z,15.60
2022-08-04T02:22:26.148Z,15.60
2022-08-04T02:23:37.430Z,15.60
2022-08-04T02:24:46.729Z,15.60
2022-08-04T02:25:56.031Z,15.60
2022-08-04T02:27:01.352Z,15.60
2022-08-04T02:28:12.526Z,15.60
2022-08-04T02:29:19.577Z,15.70
2022-08-04T02:30:22.581Z,15.60
2022-08-04T02:31:43.382Z,15.60
2022-08-04T02:32:49.785Z,15.60
2022-08-04T02:33:59.097Z,15.60
2022-08-04T02:35:25.489Z,15.60
2022-08-04T02:36:42.701Z,15.60
2022-08-04T02:37:49.167Z,15.60
2022-08-04T02:39:02.436Z,15.50
2022-08-04T02:40:07.290Z,15.50
2022-08-04T02:41:10.433Z,15.50
2022-08-04T02:42:13.996Z,15.50
2022-08-04T02:43:51.306Z,15.50
2022-08-04T02:44:47.126Z,15.40
2022-08-04T02:45:51.938Z,15.40
2022-08-04T02:46:55.365Z,15.40
2022-08-04T02:48:08.115Z,15.30
2022-08-04T02:49:24.167Z,15.30
2022-08-04T02:50:28.454Z,15.30
2022-08-04T02:51:35.256Z,15.30
2022-08-04T02:52:39.279Z,15.40
2022-08-04T02:53:43.637Z,15.40
2022-08-04T02:54:47.985Z,15.40
2022-08-04T02:55:56.656Z,15.40
2022-08-04T02:57:00.894Z,15.40
2022-08-04T02:58:05.215Z,15.40
2022-08-04T02:59:10.613Z,15.40
2022-08-04T03:00:18.743Z,15.40
2022-08-04T03:01:23.631Z,15.40
2022-08-04T03:02:53.593Z,15.50
2022-08-04T03:04:24.721Z,15.50
2022-08-04T03:06:00.679Z,15.50
2022-08-04T03:07:33.872Z,15.40
2022-08-04T03:09:02.425Z,15.40
2022-08-04T03:10:21.735Z,15.40
2022-08-04T03:11:50.444Z,15.50
2022-08-04T03:13:14.839Z,15.50
2022-08-04T03:14:59.289Z,15.60
2022-08-04T03:16:17.448Z,15.60
2022-08-04T03:17:30.810Z,15.60
2022-08-04T03:18:54.286Z,15.70
2022-08-04T03:20:16.724Z,15.70
2022-08-04T03:21:50.562Z,15.70
2022-08-04T03:23:29.961Z,15.80
2022-08-04T03:24:37.649Z,15.80
2022-08-04T03:25:56.717Z,15.80
2022-08-04T03:27:17.892Z,15.90
2022-08-04T03:28:28.561Z,15.90
2022-08-04T03:29:55.517Z,16.00
2022-08-04T03:31:37.137Z,16.00
2022-08-04T03:33:02.988Z,16.10
2022-08-04T03:34:16.218Z,16.10
2022-08-04T03:35:47.403Z,16.20
2022-08-04T03:37:24.264Z,16.30
2022-08-04T03:39:04.103Z,16.30
2022-08-04T03:40:17.767Z,16.30
2022-08-04T03:41:51.552Z,16.30
2022-08-04T03:43:59.034Z,16.40
2022-08-04T03:45:00.152Z,16.40
2022-08-04T03:46:19.511Z,16.50
2022-08-04T03:47:44.224Z,16.50
2022-08-04T03:49:05.442Z,16.50
2022-08-04T03:50:42.198Z,16.60
2022-08-04T03:52:22.709Z,16.60
2022-08-04T03:53:37.025Z,16.70
2022-08-04T03:55:03.277Z,16.80
2022-08-04T03:56:32.658Z,16.80
2022-08-04T03:58:12.268Z,16.90
2022-08-04T03:59:20.033Z,16.90
2022-08-04T04:00:27.529Z,17.00
2022-08-04T04:02:01.973Z,17.00
2022-08-04T04:03:28.518Z,17.10
2022-08-04T04:05:00.169Z,17.10
2022-08-04T04:06:21.307Z,17.10
2022-08-04T04:08:04.806Z,17.20
2022-08-04T04:09:20.777Z,17.20
2022-08-04T04:10:39.198Z,17.30
2022-08-04T04:11:57.203Z,17.30
2022-08-04T04:13:30.172Z,17.40
2022-08-04T04:15:06.773Z,17.40
2022-08-04T04:16:17.859Z,17.50
2022-08-04T04:17:35.573Z,17.50
2022-08-04T04:18:58.403Z,17.50
2022-08-04T04:20:37.515Z,17.60
2022-08-04T04:21:59.947Z,17.60
2022-08-04T04:23:20.584Z,17.70
2022-08-04T04:25:04.621Z,17.80
2022-08-04T04:26:34.196Z,17.80
2022-08-04T04:28:45.247Z,17.90
2022-08-04T04:30:00.912Z,17.90
2022-08-04T04:31:07.582Z,18.00
2022-08-04T04:32:21.811Z,18.10
2022-08-04T04:33:29.671Z,18.10
2022-08-04T04:34:46.226Z,18.20
2022-08-04T04:36:06.824Z,18.20
2022-08-04T04:37:28.029Z,18.30
2022-08-04T04:38:46.286Z,18.30
2022-08-04T04:40:10.938Z,18.40
2022-08-04T04:41:29.843Z,18.50
2022-08-04T04:42:31.926Z,18.60
2022-08-04T04:44:11.259Z,18.60
2022-08-04T04:45:33.260Z,18.70
2022-08-04T04:46:39.530Z,18.80
2022-08-04T04:48:09.201Z,18.80
2022-08-04T04:49:20.731Z,18.90
2022-08-04T04:50:51.733Z,19.00
2022-08-04T04:52:03.262Z,19.10
2022-08-04T04:53:21.398Z,19.10
2022-08-04T04:54:33.726Z,19.20
2022-08-04T04:55:47.966Z,19.20
2022-08-04T04:57:17.455Z,19.20
2022-08-04T04:58:23.013Z,19.30
2022-08-04T04:59:33.256Z,19.30
2022-08-04T05:01:08.596Z,19.40
2022-08-04T05:02:28.459Z,19.40
2022-08-04T05:04:03.584Z,19.40
2022-08-04T05:05:49.070Z,19.50
2022-08-04T05:10:06.353Z,19.50
2022-08-04T05:14:35.372Z,19.70
2022-08-04T05:20:53.181Z,19.80
2022-08-04T05:22:50.808Z,19.90
2022-08-04T05:25:33.809Z,20.00
2022-08-04T05:26:48.519Z,20.10
2022-08-04T05:30:20.135Z,20.20
2022-08-04T05:31:26.871Z,20.30
2022-08-04T05:32:37.855Z,20.40
2022-08-04T05:34:11.842Z,20.50
2022-08-04T05:36:08.934Z,20.60
2022-08-04T05:37:13.328Z,20.60
2022-08-04T05:38:22.886Z,20.70
2022-08-04T05:39:39.826Z,20.70
2022-08-04T05:40:44.703Z,20.80
2022-08-04T05:41:55.327Z,20.80
2022-08-04T05:43:01.714Z,20.90
2022-08-04T05:44:04.982Z,20.90
2022-08-04T05:45:14.113Z,21.00
2022-08-04T05:46:17.908Z,21.00
2022-08-04T05:47:22.401Z,21.00
2022-08-04T05:48:27.064Z,21.10
2022-08-04T05:49:39.485Z,21.10
2022-08-04T05:50:42.633Z,21.20
2022-08-04T05:51:46.270Z,21.20
2022-08-04T05:52:49.809Z,21.20
2022-08-04T05:53:54.775Z,21.30
2022-08-04T05:54:58.548Z,21.30
2022-08-04T05:56:03.690Z,21.40
2022-08-04T05:57:07.156Z,21.40
2022-08-04T05:58:09.892Z,21.50
2022-08-04T05:59:13.866Z,21.60
2022-08-04T06:00:39.811Z,21.60
2022-08-04T06:01:55.511Z,21.70
2022-08-04T06:03:00.036Z,21.70
2022-08-04T06:04:08.060Z,21.80
2022-08-04T06:05:17.750Z,21.80
2022-08-04T06:06:27.999Z,21.90
2022-08-04T06:08:12.553Z,21.90
2022-08-04T06:09:17.669Z,21.90
2022-08-04T06:10:29.297Z,22.00
2022-08-04T06:11:59.161Z,22.10
2022-08-04T06:13:49.244Z,22.10
2022-08-04T06:14:43.992Z,22.20
2022-08-04T06:15:48.952Z,22.20
2022-08-04T06:16:55.063Z,22.10
2022-08-04T06:18:42.169Z,22.20
2022-08-04T06:20:02.032Z,22.20
2022-08-04T06:20:54.085Z,22.20
2022-08-04T06:21:59.444Z,22.20
2022-08-04T06:23:06.111Z,22.30
2022-08-04T06:24:11.697Z,22.30
2022-08-04T06:25:20.539Z,22.40
2022-08-04T06:26:23.930Z,22.40
2022-08-04T06:27:28.453Z,22.40
2022-08-04T06:28:30.832Z,22.40
2022-08-04T06:29:51.405Z,22.40
2022-08-04T06:30:55.476Z,22.50
2022-08-04T06:32:28.435Z,22.50
2022-08-04T06:33:33.056Z,22.60
2022-08-04T06:35:01.974Z,22.60
2022-08-04T06:36:06.981Z,22.60
2022-08-04T06:37:09.576Z,22.60
2022-08-04T06:38:12.053Z,22.60
2022-08-04T06:39:14.635Z,22.70
2022-08-04T06:40:31.064Z,22.70
2022-08-04T06:41:34.868Z,22.70
2022-08-04T06:42:38.024Z,22.70
2022-08-04T06:43:42.961Z,22.80
2022-08-04T06:44:49.301Z,22.80
2022-08-04T06:45:53.018Z,22.80
2022-08-04T06:46:55.962Z,22.80
2022-08-04T06:47:59.962Z,22.80
2022-08-04T06:49:02.295Z,22.80
2022-08-04T06:51:28.745Z,22.90
2022-08-04T06:51:37.240Z,22.90
2022-08-04T06:52:47.065Z,22.90
2022-08-04T06:53:49.165Z,22.80
2022-08-04T06:54:52.928Z,22.80
2022-08-04T06:55:57.513Z,22.80
2022-08-04T06:57:01.408Z,22.70
2022-08-04T06:58:03.819Z,22.70
2022-08-04T06:59:06.383Z,22.70
2022-08-04T07:00:13.983Z,22.70
2022-08-04T07:01:19.424Z,22.80
2022-08-04T07:02:25.688Z,22.80
2022-08-04T07:03:28.354Z,22.90
2022-08-04T07:04:30.389Z,22.90
2022-08-04T07:05:32.814Z,22.90
2022-08-04T07:06:34.922Z,23.00
2022-08-04T07:07:56.416Z,23.00
2022-08-04T07:08:59.597Z,23.00
2022-08-04T07:10:02.287Z,23.00
2022-08-04T07:11:05.557Z,23.00
2022-08-04T07:12:11.066Z,23.00
2022-08-04T07:13:13.146Z,23.10
2022-08-04T07:14:17.221Z,23.10
2022-08-04T07:15:20.813Z,23.20
2022-08-04T07:16:30.569Z,23.20
2022-08-04T07:17:35.474Z,23.20
2022-08-04T07:18:37.300Z,23.20
2022-08-04T07:19:39.589Z,23.30
2022-08-04T07:20:45.914Z,23.30
2022-08-04T07:22:18.088Z,23.30
2022-08-04T07:23:11.995Z,23.30
2022-08-04T07:24:15.699Z,23.40
2022-08-04T07:25:18.311Z,23.40
2022-08-04T07:26:30.504Z,23.50
2022-08-04T07:27:47.318Z,23.60
2022-08-04T07:28:50.794Z,23.70
2022-08-04T07:29:53.879Z,23.80
2022-08-04T07:30:57.465Z,23.90
2022-08-04T07:32:00.169Z,24.00
2022-08-04T07:33:03.175Z,24.10
2022-08-04T07:34:17.100Z,24.30
2022-08-04T07:36:03.842Z,24.40
2022-08-04T07:36:50.679Z,24.40
2022-08-04T07:37:53.271Z,24.30
2022-08-04T07:38:56.454Z,24.30
2022-08-04T07:39:58.390Z,24.40
2022-08-04T07:41:01.415Z,24.40
2022-08-04T07:42:04.469Z,24.50
2022-08-04T07:43:06.691Z,24.60
2022-08-04T07:44:09.312Z,24.60
2022-08-04T07:45:11.542Z,24.60
2022-08-04T07:46:13.411Z,24.60
2022-08-04T07:47:15.348Z,24.60
2022-08-04T07:48:18.887Z,24.70
2022-08-04T07:49:55.193Z,24.70
2022-08-04T07:50:45.138Z,24.80
2022-08-04T07:51:47.041Z,24.90
2022-08-04T07:53:09.054Z,24.90
2022-08-04T07:54:13.789Z,25.00
2022-08-04T07:55:16.284Z,25.00
2022-08-04T07:56:18.360Z,25.10
2022-08-04T07:57:40.367Z,25.10
2022-08-04T07:58:42.917Z,25.20
2022-08-04T07:59:48.305Z,25.20
2022-08-04T08:00:52.378Z,25.20
2022-08-04T08:01:55.788Z,25.30
2022-08-04T08:02:58.239Z,25.20
2022-08-04T08:04:01.102Z,25.20
2022-08-04T08:05:04.130Z,25.20
2022-08-04T08:06:31.655Z,25.20
2022-08-04T08:07:28.411Z,25.20
2022-08-04T08:08:30.458Z,25.20
2022-08-04T08:09:34.724Z,25.20
2022-08-04T08:10:36.839Z,25.20
2022-08-04T08:12:36.283Z,25.20
2022-08-04T08:13:01.997Z,25.20
2022-08-04T08:14:04.925Z,25.20
2022-08-04T08:15:08.553Z,25.10
2022-08-04T08:16:12.913Z,25.00
2022-08-04T08:17:15.017Z,25.00
2022-08-04T08:18:17.216Z,25.00
2022-08-04T08:19:19.255Z,24.90
2022-08-04T08:20:29.169Z,24.90
2022-08-04T08:21:32.707Z,25.00
2022-08-04T08:22:36.010Z,25.00
2022-08-04T08:23:38.832Z,25.00
2022-08-04T08:24:41.264Z,24.90
2022-08-04T08:25:43.345Z,24.90
2022-08-04T08:26:45.910Z,24.90
2022-08-04T08:27:56.258Z,24.90
2022-08-04T08:28:58.727Z,24.90
2022-08-04T08:30:00.702Z,25.00
2022-08-04T08:31:02.751Z,25.00
2022-08-04T08:32:14.420Z,25.00
2022-08-04T08:33:18.091Z,25.00
2022-08-04T08:34:28.034Z,25.10
2022-08-04T08:35:35.408Z,25.10
2022-08-04T08:36:50.753Z,25.10
2022-08-04T08:38:03.143Z,25.10
2022-08-04T08:39:20.469Z,25.10
2022-08-04T08:40:41.397Z,25.20
2022-08-04T08:42:18.953Z,25.20
2022-08-04T08:44:04.929Z,25.20
2022-08-04T08:45:41.624Z,25.20
2022-08-04T08:47:01.580Z,25.10
2022-08-04T08:48:33.202Z,25.20
2022-08-04T08:50:04.348Z,25.20
2022-08-04T08:51:26.321Z,25.20
2022-08-04T08:53:03.219Z,25.20
2022-08-04T08:54:35.878Z,25.20
2022-08-04T08:55:50.203Z,25.20
2022-08-04T08:56:57.618Z,25.10
2022-08-04T08:58:14.708Z,25.10
2022-08-04T08:59:29.685Z,25.20
2022-08-04T09:00:42.524Z,25.20
2022-08-04T09:02:15.007Z,25.30
2022-08-04T09:03:48.803Z,25.30
2022-08-04T09:05:04.378Z,25.20
2022-08-04T09:06:36.964Z,25.10
2022-08-04T09:08:11.839Z,25.10
2022-08-04T09:09:22.526Z,25.20
2022-08-04T09:10:33.908Z,25.10
2022-08-04T09:11:43.899Z,25.10
2022-08-04T09:12:53.950Z,25.10
2022-08-04T09:14:20.689Z,25.20
2022-08-04T09:15:33.369Z,25.20
2022-08-04T09:16:45.401Z,25.20
2022-08-04T09:18:02.132Z,25.10
2022-08-04T09:19:38.750Z,25.10
2022-08-04T09:21:04.609Z,25.00
2022-08-04T09:22:43.803Z,25.00
2022-08-04T09:23:49.150Z,25.00
2022-08-04T09:25:09.962Z,24.90
2022-08-04T09:26:20.493Z,24.90
2022-08-04T09:27:35.585Z,24.90
2022-08-04T09:29:18.158Z,25.00
2022-08-04T09:30:29.150Z,25.00
2022-08-04T09:31:51.709Z,25.00
2022-08-04T09:33:17.653Z,24.90
2022-08-04T09:35:03.089Z,24.90
2022-08-04T09:36:34.063Z,24.90
2022-08-04T09:37:53.703Z,25.00
2022-08-04T09:39:13.801Z,25.10
2022-08-04T09:40:53.808Z,25.10
2022-08-04T09:42:31.684Z,25.20
2022-08-04T09:44:43.103Z,25.20
2022-08-04T09:45:43.197Z,25.20
2022-08-04T09:47:09.116Z,25.20
2022-08-04T09:48:36.974Z,25.30
2022-08-04T09:50:08.485Z,25.30
2022-08-04T09:51:57.893Z,25.40
2022-08-04T09:52:59.678Z,25.40
2022-08-04T09:54:30.648Z,25.40
2022-08-04T09:55:53.152Z,25.40
2022-08-04T09:57:11.823Z,25.40
2022-08-04T09:58:16.674Z,25.40
2022-08-04T09:59:46.516Z,25.50
2022-08-04T10:00:53.437Z,25.60
2022-08-04T10:01:59.974Z,25.60
2022-08-04T10:03:02.832Z,25.70
2022-08-04T10:04:12.176Z,25.70
2022-08-04T10:05:20.480Z,25.80
2022-08-04T10:06:48.270Z,25.80
2022-08-04T10:08:15.733Z,25.90
2022-08-04T10:09:25.066Z,25.80
2022-08-04T10:10:35.578Z,25.90
2022-08-04T10:12:07.348Z,26.00
2022-08-04T10:13:22.563Z,26.20
2022-08-04T10:14:56.267Z,26.30
2022-08-04T10:16:23.857Z,26.40
2022-08-04T10:17:43.587Z,26.40
2022-08-04T10:19:25.742Z,26.50
2022-08-04T10:20:57.527Z,26.50
2022-08-04T10:22:37.076Z,26.60
2022-08-04T10:24:05.859Z,26.70
2022-08-04T10:26:07.715Z,26.80
2022-08-04T10:27:14.898Z,26.70
2022-08-04T10:28:21.488Z,26.70
2022-08-04T10:29:44.392Z,26.70
2022-08-04T10:30:51.882Z,26.80
2022-08-04T10:32:15.929Z,26.90
2022-08-04T10:33:25.786Z,27.00
2022-08-04T10:34:32.051Z,27.10
2022-08-04T10:35:43.494Z,27.10
2022-08-04T10:36:52.238Z,27.10
2022-08-04T10:38:31.365Z,27.10
2022-08-04T10:40:07.076Z,27.20
2022-08-04T10:41:22.822Z,27.20
2022-08-04T10:42:29.724Z,27.40
2022-08-04T10:43:52.232Z,27.40
2022-08-04T10:45:17.100Z,27.40
2022-08-04T10:46:29.403Z,27.40
2022-08-04T10:47:38.352Z,27.50
2022-08-04T10:48:51.776Z,27.60
2022-08-04T10:50:01.419Z,27.70
2022-08-04T10:51:11.602Z,27.80
2022-08-04T10:52:34.537Z,27.90
2022-08-04T10:53:38.980Z,28.00
2022-08-04T10:55:03.841Z,28.20
2022-08-04T10:56:23.770Z,28.40
2022-08-04T10:57:46.190Z,28.50
2022-08-04T10:58:56.305Z,28.60
2022-08-04T11:00:06.429Z,28.60
2022-08-04T11:02:00.008Z,28.60
2022-08-04T11:02:48.121Z,28.60
2022-08-04T11:03:58.661Z,28.70
2022-08-04T11:05:44.079Z,28.70
2022-08-04T11:06:47.384Z,28.90
2022-08-04T11:07:53.752Z,28.90
2022-08-04T11:08:57.107Z,29.10
2022-08-04T11:09:59.217Z,29.10
2022-08-04T11:11:15.033Z,29.20
2022-08-04T11:12:23.464Z,29.30
2022-08-04T11:13:30.227Z,29.40
2022-08-04T11:14:41.839Z,29.60
2022-08-04T11:15:58.374Z,29.70
2022-08-04T11:17:16.692Z,29.90
2022-08-04T11:18:46.787Z,30.10
2022-08-04T11:20:34.521Z,30.20
2022-08-04T11:21:36.030Z,30.20
2022-08-04T11:22:47.567Z,30.10
2022-08-04T11:24:01.844Z,30.10
2022-08-04T11:25:21.764Z,30.00
2022-08-04T11:26:37.333Z,30.00
2022-08-04T11:28:16.239Z,30.20
2022-08-04T11:29:38.681Z,30.30
2022-08-04T11:30:50.089Z,30.20
2022-08-04T11:31:53.503Z,30.30
2022-08-04T11:33:12.790Z,30.40
2022-08-04T11:34:25.885Z,30.40
2022-08-04T11:35:33.773Z,30.40
2022-08-04T11:36:50.639Z,30.40
2022-08-04T11:38:02.846Z,30.50
2022-08-04T11:39:18.441Z,30.70
2022-08-04T11:40:24.534Z,30.70
2022-08-04T11:41:47.620Z,30.80
2022-08-04T11:43:00.865Z,31.10
2022-08-04T11:44:10.416Z,31.10
2022-08-04T11:45:18.208Z,31.20
2022-08-04T11:46:28.160Z,31.30
2022-08-04T11:47:41.547Z,31.40
2022-08-04T11:48:53.280Z,31.50
2022-08-04T11:50:03.568Z,31.50
2022-08-04T11:51:07.001Z,31.50
2022-08-04T11:52:12.609Z,31.40
2022-08-04T11:53:24.012Z,31.50
2022-08-04T11:54:25.845Z,31.70
2022-08-04T11:55:29.715Z,31.70
2022-08-04T11:56:36.977Z,31.80
2022-08-04T11:57:40.164Z,31.80
2022-08-04T11:58:50.601Z,31.70
2022-08-04T11:59:56.531Z,31.60
2022-08-04T12:01:27.881Z,31.60
2022-08-04T12:02:49.462Z,31.60
2022-08-04T12:04:04.333Z,31.50
2022-08-04T12:05:09.395Z,31.50
2022-08-04T12:07:04.612Z,31.50
2022-08-04T12:08:36.699Z,31.60
2022-08-04T12:10:00.755Z,31.40
2022-08-04T12:11:35.228Z,31.50
2022-08-04T12:12:58.861Z,31.70
2022-08-04T12:14:06.473Z,32.00
2022-08-04T12:15:36.253Z,32.20
2022-08-04T12:16:48.952Z,32.40
2022-08-04T12:18:16.577Z,32.60
2022-08-04T12:20:05.067Z,32.80
2022-08-04T12:21:31.747Z,32.60
2022-08-04T12:22:50.619Z,32.40
2022-08-04T12:24:00.835Z,32.30
2022-08-04T12:25:19.945Z,32.20
2022-08-04T12:26:28.276Z,32.10
2022-08-04T12:28:00.904Z,32.00
2022-08-04T12:29:11.554Z,32.20
2022-08-04T12:30:59.818Z,32.10
2022-08-04T12:31:45.320Z,32.00
2022-08-04T12:33:03.871Z,31.80
2022-08-04T12:34:17.363Z,31.80
2022-08-04T12:35:27.821Z,31.70
2022-08-04T12:36:55.536Z,31.80
2022-08-04T12:38:05.164Z,32.10
2022-08-04T12:39:10.794Z,32.30
2022-08-04T12:40:30.246Z,32.40
2022-08-04T12:41:41.847Z,32.90
2022-08-04T12:43:00.080Z,34.00
2022-08-04T12:44:37.226Z,35.00
2022-08-04T12:45:34.974Z,35.80
2022-08-04T12:46:38.005Z,36.10
2022-08-04T12:47:41.890Z,36.00
2022-08-04T12:48:47.267Z,35.80
2022-08-04T12:50:00.151Z,35.80
2022-08-04T12:51:03.816Z,35.80
2022-08-04T12:52:09.444Z,35.90
2022-08-04T12:53:19.601Z,35.90
2022-08-04T12:54:36.948Z,35.50
2022-08-04T12:56:01.417Z,35.30
2022-08-04T12:57:07.518Z,35.80
2022-08-04T12:58:16.597Z,37.10
2022-08-04T12:59:43.960Z,38.20
2022-08-04T13:00:59.415Z,39.30
2022-08-04T13:02:07.188Z,40.00
2022-08-04T13:03:16.689Z,40.10
2022-08-04T13:04:21.879Z,39.80
2022-08-04T13:05:30.147Z,39.30
2022-08-04T13:06:35.664Z,38.90
2022-08-04T13:07:43.851Z,38.60
2022-08-04T13:08:47.309Z,38.00
2022-08-04T13:09:50.057Z,37.60
2022-08-04T13:10:57.473Z,37.50
2022-08-04T13:12:17.512Z,37.90
2022-08-04T13:13:25.872Z,38.60
2022-08-04T13:14:34.101Z,38.60
2022-08-04T13:15:46.988Z,38.10
2022-08-04T13:17:01.913Z,37.60
2022-08-04T13:18:14.868Z,37.00
2022-08-04T13:19:17.431Z,36.40
2022-08-04T13:20:30.509Z,36.00
2022-08-04T13:21:50.509Z,36.00
2022-08-04T13:23:09.205Z,36.70
2022-08-04T13:24:21.332Z,36.90
2022-08-04T13:26:42.822Z,37.10
2022-08-04T13:27:16.156Z,37.50
2022-08-04T13:28:24.094Z,38.00
2022-08-04T13:29:58.243Z,38.80
2022-08-04T13:31:01.714Z,39.30
2022-08-04T13:32:05.881Z,39.70
2022-08-04T13:33:08.054Z,39.90
2022-08-04T13:34:18.951Z,40.30
2022-08-04T13:35:21.584Z,40.60
2022-08-04T13:36:28.836Z,40.70
2022-08-04T13:37:35.045Z,40.70
2022-08-04T13:38:40.740Z,40.00
2022-08-04T13:39:55.332Z,39.60
2022-08-04T13:41:02.145Z,39.60
2022-08-04T13:42:10.090Z,39.50
2022-08-04T13:44:15.887Z,39.40
2022-08-04T13:44:49.357Z,39.50
2022-08-04T13:45:51.718Z,39.20
2022-08-04T13:47:01.380Z,38.90
2022-08-04T13:48:20.197Z,38.60
2022-08-04T13:49:48.593Z,38.60
2022-08-04T13:50:48.460Z,39.00
2022-08-04T13:52:04.749Z,39.30
2022-08-04T13:53:17.548Z,39.50
2022-08-04T13:54:24.205Z,39.60
2022-08-04T13:55:27.828Z,39.60
2022-08-04T13:56:35.095Z,39.40
2022-08-04T13:57:45.097Z,39.10
2022-08-04T13:58:49.863Z,39.10
2022-08-04T14:00:00.087Z,39.20
2022-08-04T14:01:11.078Z,39.10
2022-08-04T14:02:43.239Z,38.80
2022-08-04T14:04:21.945Z,38.70
2022-08-04T14:05:28.735Z,38.40
2022-08-04T14:06:34.965Z,37.60
2022-08-04T14:07:47.118Z,37.00
2022-08-04T14:09:17.448Z,36.60
2022-08-04T14:10:20.098Z,36.30
2022-08-04T14:12:06.841Z,35.90
2022-08-04T14:13:05.285Z,36.00
2022-08-04T14:14:29.096Z,35.80
2022-08-04T14:16:01.057Z,35.70
2022-08-04T14:17:05.383Z,35.50
2022-08-04T14:18:21.661Z,35.20
2022-08-04T14:19:31.097Z,35.30
2022-08-04T14:20:40.988Z,35.20
2022-08-04T14:21:43.005Z,35.10
2022-08-04T14:22:47.253Z,34.90
2022-08-04T14:23:52.555Z,35.00
2022-08-04T14:25:15.476Z,34.90
2022-08-04T14:26:33.813Z,34.90
2022-08-04T14:27:42.008Z,34.70
2022-08-04T14:29:25.146Z,34.50
2022-08-04T14:30:37.312Z,34.30
2022-08-04T14:31:55.371Z,34.20
2022-08-04T14:34:00.442Z,34.00
2022-08-04T14:34:29.002Z,33.90
2022-08-04T14:35:49.822Z,33.80
2022-08-04T14:37:18.439Z,33.80
2022-08-04T14:38:22.068Z,33.80
2022-08-04T14:40:18.681Z,33.70
2022-08-04T14:41:07.240Z,33.80
2022-08-04T14:42:09.646Z,33.70
2022-08-04T14:43:11.608Z,33.70
2022-08-04T14:44:13.877Z,33.80
2022-08-04T14:45:15.793Z,33.80
2022-08-04T14:46:19.405Z,33.80
2022-08-04T14:47:53.804Z,33.80
2022-08-04T14:49:10.947Z,33.80
2022-08-04T14:50:14.985Z,33.70
2022-08-04T14:51:26.228Z,33.70
2022-08-04T14:52:40.018Z,33.60
2022-08-04T14:53:48.144Z,33.40
2022-08-04T14:54:53.307Z,33.30
2022-08-04T14:55:58.019Z,33.30
2022-08-04T14:57:12.495Z,33.20
2022-08-04T14:58:33.695Z,33.20
2022-08-04T14:59:59.535Z,33.00
2022-08-04T15:01:09.836Z,32.70
2022-08-04T15:02:16.819Z,32.50
2022-08-04T15:03:21.938Z,32.40
2022-08-04T15:04:27.964Z,32.20
2022-08-04T15:06:02.993Z,32.20
2022-08-04T15:06:56.561Z,32.10
2022-08-04T15:08:02.755Z,32.00
2022-08-04T15:09:11.401Z,31.90
2022-08-04T15:10:14.359Z,31.80
2022-08-04T15:11:23.428Z,31.70
2022-08-04T15:12:27.290Z,31.50
2022-08-04T15:13:38.742Z,31.40
2022-08-04T15:15:20.049Z,31.30
2022-08-04T15:16:28.302Z,31.20
2022-08-04T15:17:37.402Z,31.10
2022-08-04T15:18:42.996Z,30.90
2022-08-04T15:19:55.713Z,30.70
2022-08-04T15:21:02.469Z,30.50
2022-08-04T15:22:05.690Z,30.40
2022-08-04T15:23:10.989Z,30.40
2022-08-04T15:24:15.125Z,30.40
2022-08-04T15:25:19.286Z,30.40
2022-08-04T15:26:37.579Z,30.40
2022-08-04T15:27:40.854Z,30.40
2022-08-04T15:28:50.386Z,30.30
2022-08-04T15:29:59.490Z,30.30
2022-08-04T15:32:04.291Z,30.20
2022-08-04T15:33:21.964Z,30.10
2022-08-04T15:34:26.485Z,30.00
2022-08-04T15:35:39.086Z,29.90
2022-08-04T15:37:45.091Z,29.80
2022-08-04T15:39:21.744Z,29.70
2022-08-04T15:40:48.939Z,29.70
2022-08-04T15:42:21.470Z,29.60
2022-08-04T15:43:34.955Z,29.50
2022-08-04T15:45:16.845Z,29.40
2022-08-04T15:46:45.504Z,29.50
2022-08-04T15:48:09.355Z,29.40
2022-08-04T15:49:31.153Z,29.40
2022-08-04T15:50:34.853Z,29.40
2022-08-04T15:51:38.832Z,29.30
2022-08-04T15:53:10.035Z,29.30
2022-08-04T15:54:16.901Z,29.30
2022-08-04T15:55:35.568Z,29.30
2022-08-04T15:56:48.520Z,29.20
2022-08-04T15:58:13.191Z,29.20
2022-08-04T15:59:16.400Z,29.10
2022-08-04T16:00:26.542Z,29.10
2022-08-04T16:01:28.694Z,29.10
2022-08-04T16:02:42.992Z,29.10
2022-08-04T16:03:58.946Z,29.20
2022-08-04T16:05:17.867Z,29.10
2022-08-04T16:06:20.567Z,29.10
2022-08-04T16:07:56.760Z,29.00
2022-08-04T16:09:00.835Z,29.00
2022-08-04T16:10:31.348Z,28.90
2022-08-04T16:11:35.282Z,28.90
2022-08-04T16:13:00.014Z,28.90
2022-08-04T16:14:02.071Z,28.80
2022-08-04T16:15:38.816Z,28.80
2022-08-04T16:16:41.077Z,28.80
2022-08-04T16:17:43.348Z,28.80
2022-08-04T16:18:46.272Z,28.70
2022-08-04T16:20:04.081Z,28.70
2022-08-04T16:21:17.941Z,28.60